17:45
Airports
History
Links
Donate
Help keep this website running!
PayPal
Bitcoin
This page is community maintained. The information is intended for PC simulator navigation or reference.
Always use approved charts for navigation.
45A
Cartys Airstrip
Cartys Airstrip (45A)
Kenai, Alaska, United States (99611)
4
Lat/Lng:60° 42' 9" N / 151° 17' 39" W
60.7025 / -151.294167
Elevation:150'ft / 46mMSL
ID / ICAO:45A
Runways:1
Longest:17-35
Gravel 435m / 1,426ft
Nearby Weather16:53 GMT 2018-01-18
Nearby weather at PAEN, Kenai Muni located 9.1 nautical miles from 45A
Altimeter: 29.41
Visibility: 10.0 statute miles
Wind: 0 knots (from 000°)
Temp: -7°c / 19°f
Humidity: 100.0%

METAR: PAEN 181653Z 00000KT 10SM CLR M07/M07 A2941 RMK AO2 SLP962 I1000 T10721072

(Powered by phpweather)
Nearby VORs <50NM
Nearby NDBs
Runway 17 / 35
Dimensions:434.5 x 18.3m 1426' x 60'ft
Surface:Gravel
Runway 17 [A]Runway 35 [B]
Heading:193°TH 013°TH
Lat:
Lng:
60° 42' 15.71"N
151° 17' 35.58"W
60° 42' 2.29"N
151° 17' 42.42"W
User Notes and Comments
60° 42' 9" N / 151° 17' 39" W
Distance To
Airport ID:
Nearby Airports
(R) Mcgahan Industrial Airpark 1.6 NM
AK73 N 350°
(R) Butler Aviation 1.9 NM
6AK3 NNE 16°
4 Arness Lake 4.1 NM
6Z1 S 185°
(R) Johnson 5.1 NM
3AK4 SSW 197°
(C) Kenai Muni 9.1 NM
PAEN ( WX ) S 169°
(R) Doyle Estates 13.8 NM
30AK S 175°
(R) Gaede 16.2 NM
7AK3 SSE 164°
VFR Chart
Flight Planning at SkyVector.com